Domov               UVHVVR             MKGP            O straneh              
ZDRAVSTVENO VARSTVO RASTLIN
  MREŽA AGROMET. POSTAJ
 ► PROGNOSTIČNA OBVESTILA
AGROMETEOROLOŠKI PODATKI -
ARSO
OBVLADOVANJE TVEGANJ ZARADI
NEUGODNIH VREMENSKIH RAZMER
  ► NARAVNE NESREČE
  ► SUŠA/MOČA
  ► NAMAKANJE
  ► ŽLED (gozdarstvo)
KARTOGRAFSKI PRIKAZI
SPLETNE POVEZAVE
PROJEKTI IN PUBLIKACIJE

AGROMETEOROLOŠKA MREŽA: VREMENSKE POSTAJE IN FENOLOŠKA OPAZOVANJA

Pregled podatkov za lokacijo Sužid, meteorološka postaja 37878

Pregled senzorjev na lokaciji

ID Ime Zadnja
vrednost
Datum
zadnje
spremembe
Tip
senzorja
1805 Padavine (mm) 0 mm 18.1.2018 20:00 Rain-O-Matic
1806 Temperatura 2 m (°C) -2,25 °C 18.1.2018 20:00 50YA
1807 Relativna vlaga 2 m (% RH) 89,01 % RH 18.1.2018 20:00 50YA
1808 Omočenost lista (U) 0 U 18.1.2018 20:00 A730WET

Pregled podatkov zadnjih 24 ur

Zap.
št.
Datum in čas Sužid
Omočenost
lista
Padavine Relativna
vlaga
2
m
Temperatura
2
m
0 18.1.2018 20:00 0 0 89,01 -2,25
1 18.1.2018 19:30 0 0 91,11 -2,71
2 18.1.2018 19:00 0 0 90,43 -2,69
3 18.1.2018 18:30 0 0 90,55 -2,64
4 18.1.2018 18:00 0 0 89,43 -2,39
5 18.1.2018 17:30 0 0 89,38 -2,37
6 18.1.2018 17:00 0 0 86,67 -1,54
7 18.1.2018 16:30 0 0 83,05 -0,71
8 18.1.2018 16:00 0 0 79,34 -0,05
9 18.1.2018 15:30 0 0 77,05 0,22
10 18.1.2018 15:00 0 0 79,17 0,1
11 18.1.2018 14:30 0 0 77,05 0,61
12 18.1.2018 14:00 0 0 61,71 3,79
13 18.1.2018 13:30 0 0 56,12 4,84
14 18.1.2018 13:00 0 0 51,82 5,86
15 18.1.2018 12:30 0 0 61,59 3,86
16 18.1.2018 12:00 0 0 66,47 3,27
17 18.1.2018 11:30 0 0 61,49 4,2
18 18.1.2018 11:00 0 0 65,1 2,88
19 18.1.2018 10:30 0 0 69,26 1,59
20 18.1.2018 10:00 1 0 79,37 0,07
21 18.1.2018 09:30 8 0 80,66 -0,39
22 18.1.2018 09:00 0 0 91,94 -3,27
23 18.1.2018 08:30 0 0 96,41 -4,59
24 18.1.2018 08:00 0 0 96,46 -5,18
25 18.1.2018 07:30 0 0 96,12 -5,3
26 18.1.2018 07:00 0 0 96,56 -5,32
27 18.1.2018 06:30 0 0 95,04 -5,1
28 18.1.2018 06:00 0 0 94,26 -4,22
29 18.1.2018 05:30 0 0 95,53 -4,86
30 18.1.2018 05:00 0 0 92,6 -4,22
31 18.1.2018 04:30 0 0 93,19 -3,81
32 18.1.2018 04:00 0 0 91,18 -3,08
33 18.1.2018 03:30 0 0 90,89 -2,95
34 18.1.2018 03:00 0 0 90,57 -3,32
35 18.1.2018 02:30 0 0 89,47 -3,2
36 18.1.2018 02:00 0 0 88,57 -2,93
37 18.1.2018 01:30 0 0 87,59 -2,69
38 18.1.2018 01:00 0 0 83,47 -2,08
39 18.1.2018 00:30 0 0 82,71 -1,42
40 18.1.2018 00:00 0 0 84,25 -1,56
41 17.1.2018 23:30 0 0 83,71 -1,64
42 17.1.2018 23:00 0 0 80,54 -1,25
43 17.1.2018 22:30 0 0 81,1 -1,25
44 17.1.2018 22:00 0 0 78,12 -0,9
45 17.1.2018 21:30 0 0 77,14 -0,39
46 17.1.2018 21:00 0 0 69,87 0,34
© 2011 Ministrstvo za kmetijstvo, gozdarstvo in prehrano. Vse pravice pridržane.